Time;durP1;ratioP1;P1;durP2;ratioP2;P2;SDS_P1;SDS_P2;PMS_P1;PMS_P2;Temp;Humidity;BMP_temperature;BMP_pressure;BME280_temperature;BME280_humidity;BME280_pressure;Samples;Min_cycle;Max_cycle;Signal;HPM_P1;HPM_P2
2022/07/05 00:01:07;;;;;;;;;;;16.80;99.90;;;;;;5013049;28;19945;-67
2022/07/05 00:03:34;;;;;;;;;;;16.70;99.90;;;;;;5012774;28;20286;-66
2022/07/05 00:06:01;;;;;;;;;;;16.60;99.90;;;;;;5013281;28;19925;-66
2022/07/05 00:08:28;;;;;;;;;;;16.50;99.90;;;;;;5012866;28;19925;-66
2022/07/05 00:10:56;;;;;;;;;;;16.50;99.90;;;;;;5012886;28;19972;-66
2022/07/05 00:13:23;;;;;;;;;;;16.40;99.90;;;;;;5032073;28;19937;-66
2022/07/05 00:15:50;;;;;;;;;;;16.40;99.90;;;;;;5013089;28;19971;-67
2022/07/05 00:18:17;;;;;;;;;;;16.40;99.90;;;;;;5031333;28;19925;-65
2022/07/05 00:20:45;;;;;;;;;;;16.40;99.90;;;;;;5006916;28;19925;-66
2022/07/05 00:23:12;;;;;;;;;;;16.40;99.90;;;;;;5012934;28;19925;-66
2022/07/05 00:25:39;;;;;;;;;;;16.40;99.90;;;;;;5012577;28;19925;-66
2022/07/05 00:28:07;;;;;;;;;;;16.40;99.90;;;;;;5012965;28;19937;-66
2022/07/05 00:30:34;;;;;;;;;;;16.40;99.90;;;;;;5012703;28;19972;-66
2022/07/05 00:33:00;;;;;;;;;;;16.40;99.90;;;;;;5012876;28;19929;-65
2022/07/05 00:35:27;;;;;;;;;;;16.30;99.90;;;;;;5012821;28;19926;-65
2022/07/05 00:37:54;;;;;;;;;;;16.30;99.90;;;;;;5012652;28;19932;-67
2022/07/05 00:40:21;;;;;;;;;;;16.20;99.90;;;;;;5009362;28;19968;-67
2022/07/05 00:42:48;;;;;;;;;;;16.20;99.90;;;;;;5012613;28;20285;-66
2022/07/05 00:45:16;;;;;;;;;;;16.10;99.90;;;;;;5012665;28;19931;-65
2022/07/05 00:47:43;;;;;;;;;;;16.00;99.90;;;;;;5006451;28;19994;-66
2022/07/05 00:50:10;;;;;;;;;;;15.90;99.90;;;;;;5012672;28;19932;-66
2022/07/05 00:52:37;;;;;;;;;;;15.90;99.90;;;;;;5015853;28;19933;-65
2022/07/05 00:55:04;;;;;;;;;;;15.80;99.90;;;;;;5016366;28;19925;-66
2022/07/05 00:57:32;;;;;;;;;;;15.80;99.90;;;;;;5016245;28;19929;-65
2022/07/05 00:59:58;;;;;;;;;;;15.80;99.90;;;;;;5016356;28;19929;-65
2022/07/05 01:02:27;;;;;;;;;;;15.70;99.90;;;;;;5016361;28;19929;-65
2022/07/05 01:04:53;;;;;;;;;;;15.60;99.90;;;;;;5016277;28;19925;-66
2022/07/05 01:07:22;;;;;;;;;;;15.60;99.90;;;;;;5016110;28;19925;-66
2022/07/05 01:09:49;;;;;;;;;;;15.60;99.90;;;;;;5016052;28;19929;-65
2022/07/05 01:12:16;;;;;;;;;;;15.50;99.90;;;;;;5016199;28;19925;-66
2022/07/05 01:14:44;;;;;;;;;;;15.40;99.90;;;;;;5015360;28;19929;-65
2022/07/05 01:17:11;;;;;;;;;;;15.40;99.90;;;;;;5016305;28;19924;-66
2022/07/05 01:19:39;;;;;;;;;;;15.50;99.90;;;;;;5015901;28;19936;-65
2022/07/05 01:22:12;;;;;;;;;;;15.50;99.90;;;;;;5015962;28;20461;-66
2022/07/05 01:24:40;;;;;;;;;;;15.50;99.90;;;;;;5015724;28;19944;-65
2022/07/05 01:27:07;;;;;;;;;;;15.60;99.90;;;;;;5016018;28;19925;-65
2022/07/05 01:29:34;;;;;;;;;;;15.70;99.90;;;;;;5015674;28;19972;-65
2022/07/05 01:32:00;;;;;;;;;;;15.70;99.90;;;;;;5016014;28;19982;-65
2022/07/05 01:34:27;;;;;;;;;;;15.70;99.90;;;;;;5048487;28;19925;-65
2022/07/05 01:36:54;;;;;;;;;;;15.60;99.90;;;;;;5015990;28;19925;-65
2022/07/05 01:39:21;;;;;;;;;;;15.60;99.90;;;;;;5015110;28;19925;-67
2022/07/05 01:41:49;;;;;;;;;;;15.70;99.90;;;;;;5015226;28;20394;-65
2022/07/05 01:44:16;;;;;;;;;;;15.70;99.90;;;;;;5015479;28;20020;-66
2022/07/05 01:46:43;;;;;;;;;;;15.80;99.90;;;;;;5015782;28;19932;-65
2022/07/05 01:49:12;;;;;;;;;;;15.70;99.90;;;;;;5015114;28;19929;-65
2022/07/05 01:51:41;;;;;;;;;;;15.80;99.90;;;;;;5015102;28;20185;-65
2022/07/05 01:54:08;;;;;;;;;;;15.80;99.90;;;;;;5015359;28;20027;-66
2022/07/05 01:56:35;;;;;;;;;;;15.90;99.90;;;;;;5014803;28;19932;-67
2022/07/05 01:59:03;;;;;;;;;;;15.90;99.90;;;;;;5015138;28;19925;-65
2022/07/05 02:01:33;;;;;;;;;;;16.00;99.90;;;;;;5015468;28;19929;-65
2022/07/05 02:04:00;;;;;;;;;;;15.90;99.90;;;;;;5013841;28;19945;-66
2022/07/05 02:06:27;;;;;;;;;;;15.90;99.90;;;;;;5028884;28;19925;-65
2022/07/05 02:08:54;;;;;;;;;;;15.90;99.90;;;;;;5014686;28;19926;-65
2022/07/05 02:11:21;;;;;;;;;;;15.80;99.90;;;;;;5013625;28;20282;-65
2022/07/05 02:13:48;;;;;;;;;;;15.80;99.90;;;;;;5014783;28;19925;-66
2022/07/05 02:16:17;;;;;;;;;;;15.70;99.90;;;;;;5015339;28;20392;-67
2022/07/05 02:18:44;;;;;;;;;;;15.80;99.90;;;;;;5015100;28;19925;-67
2022/07/05 02:21:11;;;;;;;;;;;15.80;99.90;;;;;;5014776;28;19932;-65
2022/07/05 02:23:38;;;;;;;;;;;15.80;99.90;;;;;;5014861;28;19940;-66
2022/07/05 02:26:06;;;;;;;;;;;15.80;99.90;;;;;;5014761;28;20377;-65
2022/07/05 02:28:35;;;;;;;;;;;15.80;99.90;;;;;;5014853;28;19947;-65
2022/07/05 02:31:03;;;;;;;;;;;15.70;99.90;;;;;;5014571;28;19967;-66
2022/07/05 02:33:31;;;;;;;;;;;15.60;99.90;;;;;;5047901;28;19937;-66
2022/07/05 02:35:58;;;;;;;;;;;15.60;99.90;;;;;;5014758;28;19925;-66
2022/07/05 02:38:25;;;;;;;;;;;15.50;99.90;;;;;;5014643;28;19948;-66
2022/07/05 02:40:51;;;;;;;;;;;15.50;99.90;;;;;;5014428;28;19929;-65
2022/07/05 02:43:18;;;;;;;;;;;15.40;99.90;;;;;;5013936;28;19925;-66
2022/07/05 02:45:47;;;;;;;;;;;15.40;99.90;;;;;;5014568;28;19928;-65
2022/07/05 02:48:14;;;;;;;;;;;15.40;99.90;;;;;;5014335;28;19926;-65
2022/07/05 02:50:43;;;;;;;;;;;15.30;99.90;;;;;;5014314;28;19925;-65
2022/07/05 02:53:10;;;;;;;;;;;15.20;99.90;;;;;;5014590;28;19929;-65
2022/07/05 02:55:37;;;;;;;;;;;15.20;99.90;;;;;;5014296;28;19935;-66
2022/07/05 02:58:05;;;;;;;;;;;15.10;99.90;;;;;;5014326;28;20400;-65
2022/07/05 03:00:32;;;;;;;;;;;15.00;99.90;;;;;;5014211;28;19925;-65
2022/07/05 03:03:00;;;;;;;;;;;15.00;99.90;;;;;;5014645;28;19967;-66
2022/07/05 03:05:28;;;;;;;;;;;15.00;99.90;;;;;;5014007;28;19949;-66
2022/07/05 03:08:01;;;;;;;;;;;15.00;99.90;;;;;;5014400;28;20300;-66
2022/07/05 03:10:30;;;;;;;;;;;15.10;99.90;;;;;;5014050;28;20362;-65
2022/07/05 03:12:59;;;;;;;;;;;15.10;99.90;;;;;;5015069;28;19925;-64
2022/07/05 03:15:26;;;;;;;;;;;15.10;99.90;;;;;;5013605;28;19931;-65
2022/07/05 03:17:53;;;;;;;;;;;15.10;99.90;;;;;;5013907;28;19933;-65
2022/07/05 03:20:22;;;;;;;;;;;15.00;99.90;;;;;;5013564;28;19971;-65
2022/07/05 03:22:49;;;;;;;;;;;15.00;99.90;;;;;;5013929;28;19925;-65
2022/07/05 03:25:20;;;;;;;;;;;15.00;99.90;;;;;;5013891;28;19925;-66
2022/07/05 03:27:49;;;;;;;;;;;15.00;99.90;;;;;;5013824;28;19925;-65
2022/07/05 03:30:16;;;;;;;;;;;15.10;99.90;;;;;;5013514;28;19956;-64
2022/07/05 03:32:43;;;;;;;;;;;15.20;99.90;;;;;;5010800;28;20344;-66
2022/07/05 03:35:10;;;;;;;;;;;15.10;99.90;;;;;;5013406;28;19932;-66
2022/07/05 03:37:37;;;;;;;;;;;15.10;99.90;;;;;;5013641;28;19925;-65
2022/07/05 03:40:05;;;;;;;;;;;15.00;99.90;;;;;;5013453;28;19932;-65
2022/07/05 03:42:35;;;;;;;;;;;15.10;99.90;;;;;;5013182;28;19925;-65
2022/07/05 03:45:02;;;;;;;;;;;15.10;99.90;;;;;;5013216;28;19979;-65
2022/07/05 03:47:29;;;;;;;;;;;15.20;99.90;;;;;;5011616;28;19929;-65
2022/07/05 03:49:56;;;;;;;;;;;15.20;99.90;;;;;;5012956;28;19932;-65
2022/07/05 03:52:23;;;;;;;;;;;15.20;99.90;;;;;;5013546;28;19933;-64
2022/07/05 03:54:50;;;;;;;;;;;15.30;99.90;;;;;;5013186;28;19925;-65
2022/07/05 03:57:18;;;;;;;;;;;15.30;99.90;;;;;;5013584;28;19951;-65
2022/07/05 03:59:46;;;;;;;;;;;15.30;99.90;;;;;;5013041;28;19932;-65
2022/07/05 04:02:16;;;;;;;;;;;15.30;99.90;;;;;;5013341;28;19925;-65
2022/07/05 04:04:43;;;;;;;;;;;15.20;99.90;;;;;;5007745;28;20343;-65
2022/07/05 04:07:09;;;;;;;;;;;15.20;99.90;;;;;;5013275;28;19925;-65
2022/07/05 04:09:37;;;;;;;;;;;15.20;99.90;;;;;;5012796;28;19929;-65
2022/07/05 04:12:05;;;;;;;;;;;15.20;99.90;;;;;;5013088;28;19925;-66
2022/07/05 04:14:33;;;;;;;;;;;15.20;99.90;;;;;;5045991;28;19971;-65
2022/07/05 04:17:01;;;;;;;;;;;15.20;99.90;;;;;;5013259;28;19925;-64
2022/07/05 04:19:30;;;;;;;;;;;15.10;99.90;;;;;;5012749;28;19925;-65
2022/07/05 04:21:57;;;;;;;;;;;15.10;99.90;;;;;;5013603;28;20348;-66
2022/07/05 04:24:23;;;;;;;;;;;15.10;99.90;;;;;;5013014;28;19941;-66
2022/07/05 04:26:50;;;;;;;;;;;15.20;99.90;;;;;;5012869;28;20019;-64
2022/07/05 04:29:17;;;;;;;;;;;15.20;99.90;;;;;;5012856;28;19933;-65
2022/07/05 04:31:45;;;;;;;;;;;15.30;99.90;;;;;;5007680;28;19925;-66
2022/07/05 04:34:13;;;;;;;;;;;15.30;99.90;;;;;;5013587;28;19936;-67
2022/07/05 04:36:41;;;;;;;;;;;15.30;99.90;;;;;;5013099;28;20040;-66
2022/07/05 04:39:09;;;;;;;;;;;15.30;99.90;;;;;;5012560;28;19925;-66
2022/07/05 04:41:39;;;;;;;;;;;15.40;99.90;;;;;;5012919;28;19968;-66
2022/07/05 04:44:08;;;;;;;;;;;15.40;99.90;;;;;;5012928;28;19925;-66
2022/07/05 04:46:36;;;;;;;;;;;15.40;99.90;;;;;;5012985;28;19925;-67
2022/07/05 04:49:03;;;;;;;;;;;15.40;99.90;;;;;;5012617;28;19956;-67
2022/07/05 04:51:31;;;;;;;;;;;15.40;99.90;;;;;;5012430;28;19925;-66
2022/07/05 04:53:59;;;;;;;;;;;15.40;99.90;;;;;;5012736;28;19925;-67
2022/07/05 04:56:25;;;;;;;;;;;15.30;99.90;;;;;;5013063;28;19929;-65
2022/07/05 04:58:52;;;;;;;;;;;15.40;99.90;;;;;;5012133;28;19936;-66
2022/07/05 05:01:19;;;;;;;;;;;15.50;99.90;;;;;;5010839;28;19925;-64
2022/07/05 05:03:46;;;;;;;;;;;15.50;99.90;;;;;;5007636;28;19929;-64
2022/07/05 05:06:13;;;;;;;;;;;15.50;99.90;;;;;;5012307;28;19936;-65
2022/07/05 05:08:41;;;;;;;;;;;15.60;99.90;;;;;;5008994;28;19925;-66
2022/07/05 05:11:08;;;;;;;;;;;15.70;99.90;;;;;;5012486;28;20451;-66
2022/07/05 05:13:35;;;;;;;;;;;15.70;99.90;;;;;;5008060;28;19940;-65
2022/07/05 05:16:02;;;;;;;;;;;15.70;99.90;;;;;;5011505;28;20285;-65
2022/07/05 05:18:28;;;;;;;;;;;15.80;99.90;;;;;;5012004;28;19929;-65
2022/07/05 05:20:55;;;;;;;;;;;15.90;99.90;;;;;;5012325;28;20462;-65
2022/07/05 05:23:23;;;;;;;;;;;15.80;99.90;;;;;;5028786;28;19959;-67
2022/07/05 05:25:51;;;;;;;;;;;15.90;99.90;;;;;;5012392;28;19925;-65
2022/07/05 05:28:18;;;;;;;;;;;16.00;99.90;;;;;;5012462;28;19925;-66
2022/07/05 05:30:45;;;;;;;;;;;16.10;99.90;;;;;;5012187;28;19925;-65
2022/07/05 05:33:11;;;;;;;;;;;16.20;99.90;;;;;;5012513;28;19929;-65
2022/07/05 05:35:38;;;;;;;;;;;16.20;99.90;;;;;;5012192;28;19940;-64
2022/07/05 05:38:05;;;;;;;;;;;16.20;99.90;;;;;;5014776;28;19944;-66
2022/07/05 05:40:33;;;;;;;;;;;16.30;99.90;;;;;;5015583;28;19929;-65
2022/07/05 05:43:01;;;;;;;;;;;16.40;99.90;;;;;;5015835;28;19971;-64
2022/07/05 05:45:28;;;;;;;;;;;16.40;99.90;;;;;;5015649;28;19929;-65
2022/07/05 05:47:55;;;;;;;;;;;16.60;99.90;;;;;;5015585;28;20347;-65
2022/07/05 05:50:22;;;;;;;;;;;16.70;99.90;;;;;;5015510;28;19925;-65
2022/07/05 05:52:49;;;;;;;;;;;16.70;99.90;;;;;;5015841;28;20344;-65
2022/07/05 05:55:16;;;;;;;;;;;16.80;99.90;;;;;;5015993;28;19932;-66
2022/07/05 05:57:43;;;;;;;;;;;16.90;99.90;;;;;;5008708;28;19936;-65
2022/07/05 06:00:11;;;;;;;;;;;17.00;99.90;;;;;;5015351;28;19925;-65
2022/07/05 06:02:38;;;;;;;;;;;17.10;99.90;;;;;;5033000;28;20412;-67
2022/07/05 06:05:06;;;;;;;;;;;17.20;99.90;;;;;;5015136;28;19925;-65
2022/07/05 06:07:43;;;;;;;;;;;17.40;99.90;;;;;;5015466;28;20188;-65
2022/07/05 06:10:10;;;;;;;;;;;17.40;99.90;;;;;;5015437;28;19933;-65
2022/07/05 06:12:36;;;;;;;;;;;17.50;99.90;;;;;;5015162;28;19933;-66
2022/07/05 06:15:03;;;;;;;;;;;17.60;99.90;;;;;;5014919;28;19951;-64
2022/07/05 06:17:36;;;;;;;;;;;17.70;99.90;;;;;;5015098;28;19929;-65
2022/07/05 06:20:04;;;;;;;;;;;17.80;99.90;;;;;;5015362;28;20462;-64
2022/07/05 06:22:31;;;;;;;;;;;17.70;99.90;;;;;;5013629;28;19925;-67
2022/07/05 06:24:58;;;;;;;;;;;17.70;99.90;;;;;;5014793;28;19926;-69
2022/07/05 06:27:24;;;;;;;;;;;17.60;99.90;;;;;;5015109;28;19929;-65
2022/07/05 06:29:51;;;;;;;;;;;17.70;99.90;;;;;;5014501;28;19952;-65
2022/07/05 06:32:18;;;;;;;;;;;17.80;99.90;;;;;;5011841;28;19933;-66
2022/07/05 06:34:46;;;;;;;;;;;17.80;99.90;;;;;;5014509;28;19925;-66
2022/07/05 06:37:13;;;;;;;;;;;17.90;99.90;;;;;;5015057;28;19925;-67
2022/07/05 06:39:39;;;;;;;;;;;17.90;99.90;;;;;;5014269;28;19975;-67
2022/07/05 06:42:06;;;;;;;;;;;17.90;99.90;;;;;;5014892;28;19932;-68
2022/07/05 06:44:34;;;;;;;;;;;17.90;99.90;;;;;;5014279;28;19936;-68
2022/07/05 06:47:01;;;;;;;;;;;18.10;99.90;;;;;;5014862;28;20414;-67
2022/07/05 06:49:28;;;;;;;;;;;18.20;99.90;;;;;;5013546;28;20296;-67
2022/07/05 06:51:56;;;;;;;;;;;18.20;99.90;;;;;;5014750;28;19932;-67
2022/07/05 06:54:23;;;;;;;;;;;18.20;99.90;;;;;;5014098;28;20308;-67
2022/07/05 06:56:49;;;;;;;;;;;18.20;99.90;;;;;;5014319;28;19925;-67
2022/07/05 06:59:18;;;;;;;;;;;18.40;99.90;;;;;;5013570;28;21921;-68
2022/07/05 07:01:45;;;;;;;;;;;18.50;99.90;;;;;;5014346;28;19936;-67
2022/07/05 07:04:11;;;;;;;;;;;18.50;99.90;;;;;;5013879;28;20471;-67
2022/07/05 07:06:38;;;;;;;;;;;18.60;99.90;;;;;;5014317;28;19933;-67
2022/07/05 07:09:22;;;;;;;;;;;18.70;99.90;;;;;;5030470;28;19929;-67
2022/07/05 07:11:49;;;;;;;;;;;18.70;99.90;;;;;;5011423;28;19941;-68
2022/07/05 07:14:17;;;;;;;;;;;18.70;99.90;;;;;;5013879;28;20317;-67
2022/07/05 07:16:43;;;;;;;;;;;18.70;99.90;;;;;;5009811;28;20356;-68
2022/07/05 07:19:10;;;;;;;;;;;18.80;99.90;;;;;;5013681;28;19929;-67
2022/07/05 07:21:37;;;;;;;;;;;18.70;99.90;;;;;;5013971;28;19949;-67
2022/07/05 07:24:04;;;;;;;;;;;18.80;99.90;;;;;;5013544;28;19933;-66
2022/07/05 07:27:02;;;;;;;;;;;18.90;99.90;;;;;;5013935;28;19925;-67
2022/07/05 07:29:19;;;;;;;;;;;19.10;99.90;;;;;;5013004;28;20014;-68
2022/07/05 07:31:46;;;;;;;;;;;19.10;99.90;;;;;;5013889;28;19925;-66
2022/07/05 07:34:13;;;;;;;;;;;19.10;99.90;;;;;;5011903;28;19932;-66
2022/07/05 07:36:39;;;;;;;;;;;19.10;99.90;;;;;;5013339;28;19925;-66
2022/07/05 07:39:06;;;;;;;;;;;19.30;99.90;;;;;;5012875;28;19925;-69
2022/07/05 07:41:34;;;;;;;;;;;19.30;99.90;;;;;;5013156;28;19925;-67
2022/07/05 07:44:01;;;;;;;;;;;19.40;99.90;;;;;;5012837;28;19925;-67
2022/07/05 07:46:28;;;;;;;;;;;19.50;99.90;;;;;;5013969;28;19976;-73
2022/07/05 07:48:55;;;;;;;;;;;19.50;99.90;;;;;;5013225;28;20095;-67
2022/07/05 07:51:22;;;;;;;;;;;19.60;99.90;;;;;;5014996;28;19929;-67
2022/07/05 07:53:49;;;;;;;;;;;19.70;99.90;;;;;;5043109;22;19979;-66
2022/07/05 07:56:15;;;;;;;;;;;19.80;99.90;;;;;;5033973;28;19933;-65
2022/07/05 07:58:43;;;;;;;;;;;19.90;99.90;;;;;;5051730;28;19940;-67
2022/07/05 08:01:11;;;;;;;;;;;19.90;99.90;;;;;;5052116;28;19968;-67
2022/07/05 08:03:38;;;;;;;;;;;20.00;99.90;;;;;;5048594;28;19925;-67
2022/07/05 08:06:04;;;;;;;;;;;20.10;99.90;;;;;;5054287;28;19977;-67
2022/07/05 08:08:31;;;;;;;;;;;20.20;99.90;;;;;;5054336;28;19925;-67
2022/07/05 08:10:59;;;;;;;;;;;20.20;99.90;;;;;;5054051;28;19947;-67
2022/07/05 08:13:26;;;;;;;;;;;20.30;99.90;;;;;;5054270;28;20303;-67
2022/07/05 08:15:54;;;;;;;;;;;20.30;99.90;;;;;;5054368;28;19925;-68
2022/07/05 08:23:49;;;;;;;;;;;20.60;99.90;;;;;;5070840;28;19925;-67
2022/07/05 08:26:16;;;;;;;;;;;20.80;99.90;;;;;;5054408;28;19929;-67
2022/07/05 08:28:42;;;;;;;;;;;20.80;99.90;;;;;;5054046;28;19925;-69
2022/07/05 08:31:11;;;;;;;;;;;20.90;99.90;;;;;;5054036;28;20410;-68
2022/07/05 08:33:37;;;;;;;;;;;20.80;99.90;;;;;;5054076;28;19931;-67
2022/07/05 08:36:04;;;;;;;;;;;20.80;99.90;;;;;;5054234;28;19934;-67
2022/07/05 08:38:31;;;;;;;;;;;20.90;99.90;;;;;;5054003;28;20464;-67
2022/07/05 08:40:58;;;;;;;;;;;20.90;99.90;;;;;;5053803;28;19924;-67
2022/07/05 08:43:26;;;;;;;;;;;21.10;99.90;;;;;;5053936;28;19924;-68
2022/07/05 08:45:53;;;;;;;;;;;21.20;99.90;;;;;;5070936;28;20341;-67
2022/07/05 08:48:22;;;;;;;;;;;21.30;99.90;;;;;;5054021;28;19925;-67
2022/07/05 08:50:50;;;;;;;;;;;21.30;99.90;;;;;;5053604;28;19932;-66
2022/07/05 08:53:19;;;;;;;;;;;21.20;99.90;;;;;;5053879;28;19974;-66
2022/07/05 08:55:45;;;;;;;;;;;21.20;99.90;;;;;;5053773;28;19928;-68
2022/07/05 08:58:13;;;;;;;;;;;21.30;99.90;;;;;;5053900;28;20480;-68
2022/07/05 09:00:40;;;;;;;;;;;21.40;99.90;;;;;;5053687;28;19929;-68
2022/07/05 09:03:07;;;;;;;;;;;21.50;99.90;;;;;;5053688;28;20365;-68
2022/07/05 09:05:40;;;;;;;;;;;21.70;99.90;;;;;;5053931;28;19924;-67
2022/07/05 09:08:09;;;;;;;;;;;21.80;99.90;;;;;;5070841;28;19936;-67
2022/07/05 09:10:38;;;;;;;;;;;22.10;99.90;;;;;;5053257;28;19929;-68
2022/07/05 09:13:05;;;;;;;;;;;22.10;99.90;;;;;;5056099;28;20418;-67
2022/07/05 09:15:31;;;;;;;;;;;22.20;99.90;;;;;;5057820;28;19932;-67
2022/07/05 09:17:58;;;;;;;;;;;22.30;99.90;;;;;;5057486;28;19932;-68
2022/07/05 09:20:27;;;;;;;;;;;22.20;99.90;;;;;;5057164;28;19925;-67
2022/07/05 09:22:56;;;;;;;;;;;22.10;99.90;;;;;;5057653;28;19924;-68
2022/07/05 09:25:24;;;;;;;;;;;22.10;99.90;;;;;;5057608;28;19924;-67
2022/07/05 09:27:52;;;;;;;;;;;22.20;99.90;;;;;;5057249;28;19968;-67
2022/07/05 09:30:28;;;;;;;;;;;22.10;99.90;;;;;;5057497;28;19928;-67
2022/07/05 09:33:00;;;;;;;;;;;21.90;99.90;;;;;;5057040;28;19924;-67
2022/07/05 09:35:28;;;;;;;;;;;21.70;99.90;;;;;;5057278;28;20027;-67
2022/07/05 09:37:56;;;;;;;;;;;22.10;99.90;;;;;;5057095;28;19930;-68
2022/07/05 09:40:23;;;;;;;;;;;22.50;99.90;;;;;;5056755;28;19928;-68
2022/07/05 09:42:50;;;;;;;;;;;22.80;99.90;;;;;;5056946;28;19928;-68
2022/07/05 09:45:22;;;;;;;;;;;23.10;99.90;;;;;;5057148;28;19924;-67
2022/07/05 09:47:49;;;;;;;;;;;23.50;99.90;;;;;;5057189;28;19929;-68
2022/07/05 09:50:15;;;;;;;;;;;23.40;99.90;;;;;;5057083;28;19925;-67
2022/07/05 09:52:43;;;;;;;;;;;23.40;99.90;;;;;;5056935;28;19925;-67
2022/07/05 09:55:12;;;;;;;;;;;23.50;99.90;;;;;;5057002;28;19932;-68
2022/07/05 09:57:40;;;;;;;;;;;23.40;99.90;;;;;;5056764;28;20362;-67
2022/07/05 10:00:08;;;;;;;;;;;23.30;99.90;;;;;;5056522;28;19929;-67
2022/07/05 10:02:37;;;;;;;;;;;23.00;99.90;;;;;;5056984;28;19924;-67
2022/07/05 10:05:10;;;;;;;;;;;22.80;99.90;;;;;;5057027;28;19974;-66
2022/07/05 10:07:38;;;;;;;;;;;22.80;99.90;;;;;;5056385;28;19924;-67
2022/07/05 10:10:05;;;;;;;;;;;22.80;99.90;;;;;;5056190;28;19936;-67
2022/07/05 10:12:35;;;;;;;;;;;23.00;99.90;;;;;;5056679;28;19924;-67
2022/07/05 10:15:02;;;;;;;;;;;23.20;99.90;;;;;;5056428;28;19928;-66
2022/07/05 10:17:31;;;;;;;;;;;23.20;99.90;;;;;;5056591;28;19928;-67
2022/07/05 10:19:59;;;;;;;;;;;23.00;99.90;;;;;;5056184;28;19925;-67
2022/07/05 10:22:27;;;;;;;;;;;23.30;99.90;;;;;;5056350;28;19928;-66
2022/07/05 10:24:55;;;;;;;;;;;23.50;99.90;;;;;;5055177;28;19924;-67
2022/07/05 10:27:23;;;;;;;;;;;23.70;99.90;;;;;;5056348;28;19931;-67
2022/07/05 10:29:52;;;;;;;;;;;23.70;99.90;;;;;;5055873;28;20358;-68
2022/07/05 10:32:19;;;;;;;;;;;23.50;99.90;;;;;;5056137;28;19924;-67
2022/07/05 10:34:47;;;;;;;;;;;23.80;99.90;;;;;;5056383;28;19932;-67
2022/07/05 10:37:13;;;;;;;;;;;23.90;99.90;;;;;;5056407;28;19974;-67
2022/07/05 10:39:40;;;;;;;;;;;23.90;99.90;;;;;;5056036;28;19924;-68
2022/07/05 10:42:07;;;;;;;;;;;23.50;99.90;;;;;;5056174;28;19932;-67
2022/07/05 10:44:35;;;;;;;;;;;23.60;99.90;;;;;;5056013;28;19928;-68
2022/07/05 10:47:11;;;;;;;;;;;23.70;99.90;;;;;;5055892;28;19925;-66
2022/07/05 10:49:38;;;;;;;;;;;23.60;99.90;;;;;;5055439;28;19925;-67
2022/07/05 10:52:05;;;;;;;;;;;23.60;99.90;;;;;;5055845;28;19924;-70
2022/07/05 10:54:32;;;;;;;;;;;24.10;99.90;;;;;;5055783;28;19932;-67
2022/07/05 10:57:17;;;;;;;;;;;24.30;99.90;;;;;;5055717;28;19924;-69
2022/07/05 11:00:03;;;;;;;;;;;24.20;99.90;;;;;;5055371;28;19925;-67
2022/07/05 11:02:31;;;;;;;;;;;24.20;99.90;;;;;;5055682;28;20003;-68
2022/07/05 11:04:58;;;;;;;;;;;24.30;99.90;;;;;;5055574;28;19928;-68
2022/07/05 11:07:40;;;;;;;;;;;24.30;99.90;;;;;;5055155;28;19924;-67
2022/07/05 11:10:07;;;;;;;;;;;24.20;99.90;;;;;;5054247;28;20384;-67
2022/07/05 11:12:36;;;;;;;;;;;23.80;99.90;;;;;;5055497;28;19925;-68
2022/07/05 11:15:08;;;;;;;;;;;23.90;99.90;;;;;;5055351;28;20003;-67
2022/07/05 11:17:36;;;;;;;;;;;24.10;99.90;;;;;;5055426;28;19924;-67
2022/07/05 11:20:08;;;;;;;;;;;24.30;99.90;;;;;;5055069;28;20342;-67
2022/07/05 11:22:35;;;;;;;;;;;24.60;99.90;;;;;;5055186;28;19936;-67
2022/07/05 11:25:03;;;;;;;;;;;24.80;99.90;;;;;;5055040;28;19924;-67
2022/07/05 11:27:32;;;;;;;;;;;25.10;99.90;;;;;;5055453;28;19932;-67
2022/07/05 11:29:58;;;;;;;;;;;25.40;99.90;;;;;;5054777;28;19970;-67
2022/07/05 11:32:36;;;;;;;;;;;25.40;99.90;;;;;;5054870;28;20304;-67
2022/07/05 11:35:15;;;;;;;;;;;25.20;99.90;;;;;;5054564;28;20356;-67
2022/07/05 11:38:01;;;;;;;;;;;25.30;99.90;;;;;;5054893;28;19928;-67
2022/07/05 11:40:28;;;;;;;;;;;24.80;99.90;;;;;;5054405;28;20023;-69
2022/07/05 11:42:55;;;;;;;;;;;25.40;99.90;;;;;;5054887;28;19970;-68
2022/07/05 11:45:22;;;;;;;;;;;25.70;99.90;;;;;;5054654;28;19932;-67
2022/07/05 11:47:49;;;;;;;;;;;25.90;99.90;;;;;;5055002;28;20372;-67
2022/07/05 11:50:17;;;;;;;;;;;26.10;99.90;;;;;;5054522;28;19932;-67
2022/07/05 11:52:45;;;;;;;;;;;26.60;99.90;;;;;;5054560;28;19925;-67
2022/07/05 11:55:12;;;;;;;;;;;27.90;99.90;;;;;;5054469;28;19928;-67
2022/07/05 11:57:49;;;;;;;;;;;28.80;99.90;;;;;;5054910;28;20277;-67
2022/07/05 12:00:25;;;;;;;;;;;29.60;99.90;;;;;;5054330;28;19924;-68
2022/07/05 12:02:52;;;;;;;;;;;30.80;99.90;;;;;;5054494;28;19928;-67
2022/07/05 12:05:20;;;;;;;;;;;31.10;99.90;;;;;;5054555;28;19924;-67
2022/07/05 12:07:49;;;;;;;;;;;29.80;99.90;;;;;;5054087;28;20334;-68
2022/07/05 12:13:06;;;;;;;;;;;28.60;99.90;;;;;;5029026;28;19944;-68
2022/07/05 12:15:33;;;;;;;;;;;27.50;99.90;;;;;;5054464;28;19924;-67
2022/07/05 12:18:03;;;;;;;;;;;26.80;99.90;;;;;;5054275;28;19958;-68
2022/07/05 12:20:32;;;;;;;;;;;26.10;99.90;;;;;;5053939;28;19985;-67
2022/07/05 12:23:00;;;;;;;;;;;25.90;99.90;;;;;;5054225;28;19928;-67
2022/07/05 12:25:28;;;;;;;;;;;25.60;99.90;;;;;;5054331;28;19924;-67
2022/07/05 12:27:55;;;;;;;;;;;24.80;99.90;;;;;;5054366;28;19932;-68
2022/07/05 12:30:22;;;;;;;;;;;25.20;99.90;;;;;;5070610;28;19928;-67
2022/07/05 12:32:57;;;;;;;;;;;26.60;99.90;;;;;;5054114;28;19928;-68
2022/07/05 12:35:27;;;;;;;;;;;27.00;99.90;;;;;;5054104;28;19931;-68
2022/07/05 12:37:55;;;;;;;;;;;27.30;99.90;;;;;;5054036;28;19925;-68
2022/07/05 12:40:23;;;;;;;;;;;26.50;99.90;;;;;;5053835;28;19977;-68
2022/07/05 12:43:00;;;;;;;;;;;25.80;99.90;;;;;;5054048;28;19978;-67
2022/07/05 12:45:27;;;;;;;;;;;26.80;99.90;;;;;;5054030;28;20362;-67
2022/07/05 12:47:55;;;;;;;;;;;28.30;99.90;;;;;;5056386;28;19931;-68
2022/07/05 12:50:24;;;;;;;;;;;29.00;99.90;;;;;;5057774;28;19928;-68
2022/07/05 12:58:01;;;;;;;;;;;30.50;99.90;;;;;;5057988;28;20395;-68
2022/07/05 12:58:33;;;;;;;;;;;32.50;99.90;;;;;;5074813;28;19921;-68
2022/07/05 13:01:00;;;;;;;;;;;31.70;99.90;;;;;;5057832;28;19924;-68
2022/07/05 13:03:27;;;;;;;;;;;31.50;99.90;;;;;;5057867;28;19928;-68
2022/07/05 13:06:01;;;;;;;;;;;31.40;99.90;;;;;;5057488;28;19928;-68
2022/07/05 13:08:29;;;;;;;;;;;31.40;99.90;;;;;;5057773;28;19932;-68
2022/07/05 13:10:56;;;;;;;;;;;30.80;99.90;;;;;;5057490;28;19925;-68
2022/07/05 13:13:22;;;;;;;;;;;31.10;99.90;;;;;;5057714;28;19932;-68
2022/07/05 13:15:49;;;;;;;;;;;32.20;99.90;;;;;;5057724;28;19928;-68
2022/07/05 13:18:23;;;;;;;;;;;33.10;99.90;;;;;;5057444;28;19924;-68
2022/07/05 13:20:51;;;;;;;;;;;32.30;99.90;;;;;;5057601;28;19928;-68
2022/07/05 13:23:18;;;;;;;;;;;32.70;99.90;;;;;;5057486;28;19925;-68
2022/07/05 13:25:46;;;;;;;;;;;33.00;99.90;;;;;;5057499;28;19924;-69
2022/07/05 13:28:13;;;;;;;;;;;31.60;99.90;;;;;;5057401;28;19932;-69
2022/07/05 13:30:39;;;;;;;;;;;29.70;99.90;;;;;;5057230;28;20385;-68
2022/07/05 13:33:06;;;;;;;;;;;28.60;99.90;;;;;;5057598;28;20407;-69
2022/07/05 13:35:33;;;;;;;;;;;27.80;99.90;;;;;;5057487;28;19928;-69
2022/07/05 13:38:00;;;;;;;;;;;27.40;99.90;;;;;;5057199;28;20396;-69
2022/07/05 13:40:27;;;;;;;;;;;26.70;99.90;;;;;;5056930;28;19928;-69
2022/07/05 13:42:55;;;;;;;;;;;27.30;99.90;;;;;;5057164;28;19924;-69
2022/07/05 13:45:21;;;;;;;;;;;28.30;99.90;;;;;;5057225;28;19931;-69
2022/07/05 13:47:48;;;;;;;;;;;29.00;99.90;;;;;;5057185;28;19924;-68
2022/07/05 13:50:34;;;;;;;;;;;28.50;99.90;;;;;;5056850;28;19925;-69
2022/07/05 13:53:01;;;;;;;;;;;28.20;99.90;;;;;;5072464;22;19975;-71
2022/07/05 13:55:28;;;;;;;;;;;27.90;99.90;;;;;;5017187;28;19929;-70
2022/07/05 13:57:57;;;;;;;;;;;27.90;99.90;;;;;;5017027;28;19975;-71
2022/07/05 14:00:25;;;;;;;;;;;29.00;99.90;;;;;;5034727;28;19926;-71
2022/07/05 14:02:52;;;;;;;;;;;29.50;99.90;;;;;;5017069;28;19947;-71
2022/07/05 14:05:20;;;;;;;;;;;30.10;99.90;;;;;;5017100;28;19961;-70
2022/07/05 14:07:47;;;;;;;;;;;30.60;99.90;;;;;;5016704;28;19925;-71
2022/07/05 14:10:14;;;;;;;;;;;31.10;99.90;;;;;;5035292;28;20030;-70
2022/07/05 14:12:40;;;;;;;;;;;30.80;99.90;;;;;;5054437;28;19932;-71
2022/07/05 14:15:09;;;;;;;;;;;29.80;99.90;;;;;;5036680;28;19925;-71
2022/07/05 14:17:36;;;;;;;;;;;29.80;99.90;;;;;;5036572;28;19925;-70
2022/07/05 14:20:02;;;;;;;;;;;30.20;99.90;;;;;;5036073;28;20388;-72
2022/07/05 14:22:29;;;;;;;;;;;30.90;99.90;;;;;;5036346;28;19975;-70
2022/07/05 14:24:56;;;;;;;;;;;30.70;99.90;;;;;;5036434;28;19925;-70
2022/07/05 14:27:23;;;;;;;;;;;30.90;99.90;;;;;;5036505;28;19925;-70
2022/07/05 14:29:49;;;;;;;;;;;31.50;99.90;;;;;;5036239;28;19932;-70
2022/07/05 14:32:18;;;;;;;;;;;30.50;99.90;;;;;;5036684;28;19925;-70